Погода Дебряна 2 недели

Смоленская область, Россия

25 мая-06 июня
  • 25мая
    Сегодня
    +9°
    +23°
    Ясно и безоблачно
    ВремяПогодаТемператураВлажностьДавлениеВетер, м/сВероятность осадков
    00:00Ясно и безоблачно+11°C55 %757 мм3.1 м/с2 %
    03:00Ясно и безоблачно+9°C58 %757 мм2.6 м/с2 %
    06:00Ясно и безоблачно+10°C62 %757 мм2.7 м/с2 %
    09:00Ясно и безоблачно+17°C49 %757 мм2.5 м/с2 %
    12:00Ясно и безоблачно+22°C37 %757 мм2.4 м/с2 %
    15:00Ясно и безоблачно+23°C33 %756 мм2.2 м/с2 %
    18:00Ясно и безоблачно+22°C34 %755 мм1.7 м/с2 %
    21:00Ясно и безоблачно+16°C63 %754 мм2.7 м/с2 %
  • 26мая
    Воскресенье
    +10°
    +24°
    Ясно и безоблачно
    ВремяПогодаТемператураВлажностьДавлениеВетер, м/сВероятность осадков
    00:00Ясно и безоблачно+13°C69 %754 мм2.4 м/с2 %
    03:00Облачно с прояснениями+12°C61 %754 мм1.1 м/с2 %
    06:00Облачно с прояснениями+12°C65 %754 мм0.4 м/с2 %
    09:00Ясно и безоблачно+19°C49 %754 мм1.2 м/с2 %
    12:00Ясно и безоблачно+23°C37 %754 мм1.8 м/с2 %
    15:00Ясно и безоблачно+24°C33 %753 мм0.9 м/с2 %
    18:00Небольшая облачность+24°C32 %752 мм2.1 м/с2 %
    21:00Ясно и безоблачно+19°C60 %752 мм0.3 м/с2 %
  • 27мая
    Понедельник
    +12°
    +25°
    Практически безоблачно
    ВремяПогодаТемператураВлажностьДавлениеВетер, м/сВероятность осадков
    00:00Ясно и безоблачно+16°C61 %753 мм0.9 м/с2 %
    03:00Ясно и безоблачно+14°C76 %753 мм1.9 м/с2 %
    06:00Ясно и безоблачно+13°C80 %753 мм1.8 м/с2 %
    09:00Ясно и безоблачно+20°C61 %754 мм2.1 м/с2 %
    12:00Практически безоблачно+24°C48 %754 мм2.7 м/с12 %
    15:00Практически безоблачно+24°C48 %753 мм2.2 м/с36 %
    18:00Практически безоблачно+23°C53 %752 мм1.8 м/с42 %
    21:00Ясно и безоблачно+20°C70 %752 мм2.0 м/с3 %
  • 28мая
    Вторник
    +13°
    +25°
    Практически безоблачно
    ВремяПогодаТемператураВлажностьДавлениеВетер, м/сВероятность осадков
    00:00Ясно и безоблачно+17°C80 %752 мм2.3 м/с2 %
    03:00Ясно и безоблачно+14°C89 %752 мм2.0 м/с2 %
    06:00Ясно и безоблачно+14°C87 %752 мм2.6 м/с2 %
    09:00Ясно и безоблачно+21°C64 %752 мм2.3 м/с2 %
    12:00Практически безоблачно+25°C51 %752 мм2.5 м/с2 %
    15:00Практически безоблачно+25°C47 %751 мм1.5 м/с9 %
    18:00Практически безоблачно+25°C48 %750 мм2.3 м/с5 %
    21:00Небольшая облачность+21°C65 %750 мм1.4 м/с3 %
Мы используем cookies
Соглашаюсь